sensor_id;sensor_type;location;lat;lon;timestamp;temperature;humidity
22795;DHT22;11564;50.920;11.612;2023-03-19T00:02:12;8.20;99.90
22795;DHT22;11564;50.920;11.612;2023-03-19T00:04:38;8.30;99.90
22795;DHT22;11564;50.920;11.612;2023-03-19T00:07:04;8.30;99.90
22795;DHT22;11564;50.920;11.612;2023-03-19T00:09:29;8.40;99.90
22795;DHT22;11564;50.920;11.612;2023-03-19T00:11:55;8.40;99.90
22795;DHT22;11564;50.920;11.612;2023-03-19T00:14:21;8.40;99.90
22795;DHT22;11564;50.920;11.612;2023-03-19T00:16:47;8.50;99.90
22795;DHT22;11564;50.920;11.612;2023-03-19T00:19:12;8.60;99.90
22795;DHT22;11564;50.920;11.612;2023-03-19T00:21:39;8.80;99.90
22795;DHT22;11564;50.920;11.612;2023-03-19T00:24:05;8.90;99.90
22795;DHT22;11564;50.920;11.612;2023-03-19T00:26:32;9.00;99.90
22795;DHT22;11564;50.920;11.612;2023-03-19T00:28:59;9.00;99.90
22795;DHT22;11564;50.920;11.612;2023-03-19T00:31:26;9.10;99.90
22795;DHT22;11564;50.920;11.612;2023-03-19T00:33:53;9.20;99.90
22795;DHT22;11564;50.920;11.612;2023-03-19T00:36:19;9.50;99.90
22795;DHT22;11564;50.920;11.612;2023-03-19T00:38:45;9.70;99.90
22795;DHT22;11564;50.920;11.612;2023-03-19T00:41:11;9.80;99.90
22795;DHT22;11564;50.920;11.612;2023-03-19T00:43:38;10.00;99.90
22795;DHT22;11564;50.920;11.612;2023-03-19T00:46:04;10.10;99.90
22795;DHT22;11564;50.920;11.612;2023-03-19T00:48:29;10.20;99.90
22795;DHT22;11564;50.920;11.612;2023-03-19T00:51:04;10.30;99.90
22795;DHT22;11564;50.920;11.612;2023-03-19T00:53:31;10.30;99.90
22795;DHT22;11564;50.920;11.612;2023-03-19T00:55:57;10.40;99.90
22795;DHT22;11564;50.920;11.612;2023-03-19T00:58:23;10.40;99.90
22795;DHT22;11564;50.920;11.612;2023-03-19T01:00:52;10.40;99.90
22795;DHT22;11564;50.920;11.612;2023-03-19T01:03:17;10.40;99.90
22795;DHT22;11564;50.920;11.612;2023-03-19T01:05:43;10.40;99.90
22795;DHT22;11564;50.920;11.612;2023-03-19T01:08:09;10.40;99.90
22795;DHT22;11564;50.920;11.612;2023-03-19T01:10:35;10.30;99.90
22795;DHT22;11564;50.920;11.612;2023-03-19T01:13:00;10.30;99.90
22795;DHT22;11564;50.920;11.612;2023-03-19T01:15:26;10.20;99.90
22795;DHT22;11564;50.920;11.612;2023-03-19T01:17:52;10.20;99.90
22795;DHT22;11564;50.920;11.612;2023-03-19T01:20:17;10.10;99.90
22795;DHT22;11564;50.920;11.612;2023-03-19T01:22:44;10.10;99.90
22795;DHT22;11564;50.920;11.612;2023-03-19T01:25:11;10.10;99.90
22795;DHT22;11564;50.920;11.612;2023-03-19T01:27:38;10.00;99.90
22795;DHT22;11564;50.920;11.612;2023-03-19T01:30:05;9.90;99.90
22795;DHT22;11564;50.920;11.612;2023-03-19T01:32:32;9.90;99.90
22795;DHT22;11564;50.920;11.612;2023-03-19T01:34:58;9.80;99.90
22795;DHT22;11564;50.920;11.612;2023-03-19T01:37:23;9.60;99.90
22795;DHT22;11564;50.920;11.612;2023-03-19T01:39:49;9.60;99.90
22795;DHT22;11564;50.920;11.612;2023-03-19T01:42:15;9.60;99.90
22795;DHT22;11564;50.920;11.612;2023-03-19T01:44:41;9.50;99.90
22795;DHT22;11564;50.920;11.612;2023-03-19T01:47:39;9.40;99.90
22795;DHT22;11564;50.920;11.612;2023-03-19T01:50:04;8.90;99.90
22795;DHT22;11564;50.920;11.612;2023-03-19T01:52:32;8.60;99.90
22795;DHT22;11564;50.920;11.612;2023-03-19T01:55:00;8.30;99.90
22795;DHT22;11564;50.920;11.612;2023-03-19T01:57:28;8.10;99.90
22795;DHT22;11564;50.920;11.612;2023-03-19T01:59:55;8.00;99.90
22795;DHT22;11564;50.920;11.612;2023-03-19T02:02:35;7.90;99.90
22795;DHT22;11564;50.920;11.612;2023-03-19T02:05:09;7.80;99.90
22795;DHT22;11564;50.920;11.612;2023-03-19T02:07:37;7.80;99.90
22795;DHT22;11564;50.920;11.612;2023-03-19T02:10:09;7.90;99.90
22795;DHT22;11564;50.920;11.612;2023-03-19T02:12:36;7.90;99.90
22795;DHT22;11564;50.920;11.612;2023-03-19T02:15:02;7.90;99.90
22795;DHT22;11564;50.920;11.612;2023-03-19T02:17:28;8.00;99.90
22795;DHT22;11564;50.920;11.612;2023-03-19T02:20:03;8.00;99.90
22795;DHT22;11564;50.920;11.612;2023-03-19T02:22:31;8.10;99.90
22795;DHT22;11564;50.920;11.612;2023-03-19T02:25:13;8.20;99.90
22795;DHT22;11564;50.920;11.612;2023-03-19T02:27:40;8.30;99.90
22795;DHT22;11564;50.920;11.612;2023-03-19T02:30:23;8.40;99.90
22795;DHT22;11564;50.920;11.612;2023-03-19T02:32:49;8.40;99.90
22795;DHT22;11564;50.920;11.612;2023-03-19T02:35:14;8.50;99.90
22795;DHT22;11564;50.920;11.612;2023-03-19T02:37:40;8.30;99.90
22795;DHT22;11564;50.920;11.612;2023-03-19T02:40:19;8.30;99.90
22795;DHT22;11564;50.920;11.612;2023-03-19T02:42:46;8.00;99.90
22795;DHT22;11564;50.920;11.612;2023-03-19T02:45:12;7.80;99.90
22795;DHT22;11564;50.920;11.612;2023-03-19T02:47:38;7.40;99.90
22795;DHT22;11564;50.920;11.612;2023-03-19T02:50:04;7.30;99.90
22795;DHT22;11564;50.920;11.612;2023-03-19T02:52:30;7.20;99.90
22795;DHT22;11564;50.920;11.612;2023-03-19T02:54:56;7.00;99.90
22795;DHT22;11564;50.920;11.612;2023-03-19T02:57:22;7.00;99.90
22795;DHT22;11564;50.920;11.612;2023-03-19T02:59:47;7.10;99.90
22795;DHT22;11564;50.920;11.612;2023-03-19T03:02:13;7.10;99.90
22795;DHT22;11564;50.920;11.612;2023-03-19T03:04:39;7.20;99.90
22795;DHT22;11564;50.920;11.612;2023-03-19T03:07:06;7.20;99.90
22795;DHT22;11564;50.920;11.612;2023-03-19T03:09:33;7.20;99.90
22795;DHT22;11564;50.920;11.612;2023-03-19T03:11:58;7.20;99.90
22795;DHT22;11564;50.920;11.612;2023-03-19T03:14:24;7.20;99.90
22795;DHT22;11564;50.920;11.612;2023-03-19T03:16:50;7.20;99.90
22795;DHT22;11564;50.920;11.612;2023-03-19T03:19:15;7.50;99.90
22795;DHT22;11564;50.920;11.612;2023-03-19T03:21:41;7.60;99.90
22795;DHT22;11564;50.920;11.612;2023-03-19T03:24:07;7.70;99.90
22795;DHT22;11564;50.920;11.612;2023-03-19T03:26:34;7.60;99.90
22795;DHT22;11564;50.920;11.612;2023-03-19T03:29:00;7.90;99.90
22795;DHT22;11564;50.920;11.612;2023-03-19T03:31:26;7.70;99.90
22795;DHT22;11564;50.920;11.612;2023-03-19T03:33:52;7.40;99.90
22795;DHT22;11564;50.920;11.612;2023-03-19T03:36:18;7.30;99.90
22795;DHT22;11564;50.920;11.612;2023-03-19T03:38:44;7.10;99.90
22795;DHT22;11564;50.920;11.612;2023-03-19T03:41:10;6.90;99.90
22795;DHT22;11564;50.920;11.612;2023-03-19T03:43:36;6.80;99.90
22795;DHT22;11564;50.920;11.612;2023-03-19T03:46:01;6.70;99.90
22795;DHT22;11564;50.920;11.612;2023-03-19T03:48:27;6.60;99.90
22795;DHT22;11564;50.920;11.612;2023-03-19T03:50:53;6.50;99.90
22795;DHT22;11564;50.920;11.612;2023-03-19T03:53:18;6.30;99.90
22795;DHT22;11564;50.920;11.612;2023-03-19T03:55:44;6.30;99.90
22795;DHT22;11564;50.920;11.612;2023-03-19T03:58:10;6.10;99.90
22795;DHT22;11564;50.920;11.612;2023-03-19T04:00:37;6.10;99.90
22795;DHT22;11564;50.920;11.612;2023-03-19T04:03:03;6.00;99.90
22795;DHT22;11564;50.920;11.612;2023-03-19T04:05:28;5.90;99.90
22795;DHT22;11564;50.920;11.612;2023-03-19T04:07:54;5.80;99.90
22795;DHT22;11564;50.920;11.612;2023-03-19T04:10:20;5.70;99.90
22795;DHT22;11564;50.920;11.612;2023-03-19T04:12:46;5.70;99.90
22795;DHT22;11564;50.920;11.612;2023-03-19T04:15:12;5.70;99.90
22795;DHT22;11564;50.920;11.612;2023-03-19T04:17:37;5.50;99.90
22795;DHT22;11564;50.920;11.612;2023-03-19T04:20:05;5.50;99.90
22795;DHT22;11564;50.920;11.612;2023-03-19T04:22:32;5.50;99.90
22795;DHT22;11564;50.920;11.612;2023-03-19T04:24:58;5.40;99.90
22795;DHT22;11564;50.920;11.612;2023-03-19T04:27:23;5.40;99.90
22795;DHT22;11564;50.920;11.612;2023-03-19T04:29:49;5.40;99.90
22795;DHT22;11564;50.920;11.612;2023-03-19T04:32:15;5.40;99.90
22795;DHT22;11564;50.920;11.612;2023-03-19T04:34:41;5.40;99.90
22795;DHT22;11564;50.920;11.612;2023-03-19T04:37:07;5.30;99.90
22795;DHT22;11564;50.920;11.612;2023-03-19T04:39:35;5.30;99.90
22795;DHT22;11564;50.920;11.612;2023-03-19T04:42:01;5.30;99.90
22795;DHT22;11564;50.920;11.612;2023-03-19T04:44:27;5.20;99.90
22795;DHT22;11564;50.920;11.612;2023-03-19T04:46:53;5.20;99.90
22795;DHT22;11564;50.920;11.612;2023-03-19T04:49:19;5.20;99.90
22795;DHT22;11564;50.920;11.612;2023-03-19T04:51:45;5.20;99.90
22795;DHT22;11564;50.920;11.612;2023-03-19T04:54:10;5.20;99.90
22795;DHT22;11564;50.920;11.612;2023-03-19T04:56:36;5.20;99.90
22795;DHT22;11564;50.920;11.612;2023-03-19T04:59:02;5.10;99.90
22795;DHT22;11564;50.920;11.612;2023-03-19T05:01:28;5.10;99.90
22795;DHT22;11564;50.920;11.612;2023-03-19T05:03:53;5.20;99.90
22795;DHT22;11564;50.920;11.612;2023-03-19T05:06:19;5.20;99.90
22795;DHT22;11564;50.920;11.612;2023-03-19T05:08:45;5.30;99.90
22795;DHT22;11564;50.920;11.612;2023-03-19T05:11:11;5.30;99.90
22795;DHT22;11564;50.920;11.612;2023-03-19T05:13:37;5.30;99.90
22795;DHT22;11564;50.920;11.612;2023-03-19T05:16:03;5.40;99.90
22795;DHT22;11564;50.920;11.612;2023-03-19T05:18:28;5.40;99.90
22795;DHT22;11564;50.920;11.612;2023-03-19T05:20:54;5.40;99.90
22795;DHT22;11564;50.920;11.612;2023-03-19T05:23:20;5.40;99.90
22795;DHT22;11564;50.920;11.612;2023-03-19T05:25:47;5.40;99.90
22795;DHT22;11564;50.920;11.612;2023-03-19T05:28:13;5.40;99.90
22795;DHT22;11564;50.920;11.612;2023-03-19T05:30:39;5.50;99.90
22795;DHT22;11564;50.920;11.612;2023-03-19T05:33:05;5.50;99.90
22795;DHT22;11564;50.920;11.612;2023-03-19T05:35:31;5.60;99.90
22795;DHT22;11564;50.920;11.612;2023-03-19T05:37:57;5.60;99.90
22795;DHT22;11564;50.920;11.612;2023-03-19T05:40:23;5.60;99.90
22795;DHT22;11564;50.920;11.612;2023-03-19T05:42:49;5.70;99.90
22795;DHT22;11564;50.920;11.612;2023-03-19T05:45:16;5.70;99.90
22795;DHT22;11564;50.920;11.612;2023-03-19T05:47:42;5.80;99.90
22795;DHT22;11564;50.920;11.612;2023-03-19T05:50:10;5.90;99.90
22795;DHT22;11564;50.920;11.612;2023-03-19T05:52:36;6.00;99.90
22795;DHT22;11564;50.920;11.612;2023-03-19T05:55:02;6.00;99.90
22795;DHT22;11564;50.920;11.612;2023-03-19T05:57:29;6.00;99.90
22795;DHT22;11564;50.920;11.612;2023-03-19T05:59:55;6.00;99.90
22795;DHT22;11564;50.920;11.612;2023-03-19T06:02:20;6.20;99.90
22795;DHT22;11564;50.920;11.612;2023-03-19T06:04:46;6.20;99.90
22795;DHT22;11564;50.920;11.612;2023-03-19T06:07:12;6.10;99.90
22795;DHT22;11564;50.920;11.612;2023-03-19T06:09:37;6.20;99.90
22795;DHT22;11564;50.920;11.612;2023-03-19T06:12:03;6.20;99.90
22795;DHT22;11564;50.920;11.612;2023-03-19T06:14:29;6.20;99.90
22795;DHT22;11564;50.920;11.612;2023-03-19T06:16:55;6.50;99.90
22795;DHT22;11564;50.920;11.612;2023-03-19T06:19:21;6.60;99.90
22795;DHT22;11564;50.920;11.612;2023-03-19T06:21:47;6.70;99.90
22795;DHT22;11564;50.920;11.612;2023-03-19T06:24:12;6.80;99.90
22795;DHT22;11564;50.920;11.612;2023-03-19T06:26:38;6.90;99.90
22795;DHT22;11564;50.920;11.612;2023-03-19T06:29:04;7.10;99.90
22795;DHT22;11564;50.920;11.612;2023-03-19T06:31:30;6.90;99.90
22795;DHT22;11564;50.920;11.612;2023-03-19T06:33:56;7.00;99.90
22795;DHT22;11564;50.920;11.612;2023-03-19T06:36:21;7.10;99.90
22795;DHT22;11564;50.920;11.612;2023-03-19T06:38:47;7.30;99.90
22795;DHT22;11564;50.920;11.612;2023-03-19T06:41:13;7.40;99.90
22795;DHT22;11564;50.920;11.612;2023-03-19T06:43:38;7.40;99.90
22795;DHT22;11564;50.920;11.612;2023-03-19T06:46:07;7.20;99.90
22795;DHT22;11564;50.920;11.612;2023-03-19T06:48:33;7.20;99.90
22795;DHT22;11564;50.920;11.612;2023-03-19T06:50:59;7.30;99.90
22795;DHT22;11564;50.920;11.612;2023-03-19T06:53:26;7.10;99.90
22795;DHT22;11564;50.920;11.612;2023-03-19T06:55:52;6.90;99.90
22795;DHT22;11564;50.920;11.612;2023-03-19T06:58:17;7.20;99.90
22795;DHT22;11564;50.920;11.612;2023-03-19T07:00:43;7.10;99.90
22795;DHT22;11564;50.920;11.612;2023-03-19T07:03:09;7.00;99.90
22795;DHT22;11564;50.920;11.612;2023-03-19T07:05:34;7.10;99.90
22795;DHT22;11564;50.920;11.612;2023-03-19T07:08:00;7.30;99.90
22795;DHT22;11564;50.920;11.612;2023-03-19T07:10:26;7.40;99.90
22795;DHT22;11564;50.920;11.612;2023-03-19T07:12:52;7.50;99.90
22795;DHT22;11564;50.920;11.612;2023-03-19T07:15:17;7.50;99.90
22795;DHT22;11564;50.920;11.612;2023-03-19T07:17:46;7.60;99.90
22795;DHT22;11564;50.920;11.612;2023-03-19T07:20:13;7.80;99.90
22795;DHT22;11564;50.920;11.612;2023-03-19T07:22:39;8.00;99.90
22795;DHT22;11564;50.920;11.612;2023-03-19T07:25:05;8.20;99.90
22795;DHT22;11564;50.920;11.612;2023-03-19T07:27:31;8.30;99.90
22795;DHT22;11564;50.920;11.612;2023-03-19T07:29:56;8.10;99.90
22795;DHT22;11564;50.920;11.612;2023-03-19T07:32:22;8.20;99.90
22795;DHT22;11564;50.920;11.612;2023-03-19T07:34:48;8.40;99.90
22795;DHT22;11564;50.920;11.612;2023-03-19T07:37:13;8.40;99.90
22795;DHT22;11564;50.920;11.612;2023-03-19T07:39:39;8.40;99.90
22795;DHT22;11564;50.920;11.612;2023-03-19T07:42:06;8.50;99.90
22795;DHT22;11564;50.920;11.612;2023-03-19T07:44:31;8.50;99.90
22795;DHT22;11564;50.920;11.612;2023-03-19T07:46:57;8.70;99.90
22795;DHT22;11564;50.920;11.612;2023-03-19T07:49:23;8.80;99.90
22795;DHT22;11564;50.920;11.612;2023-03-19T07:51:48;9.00;99.90
22795;DHT22;11564;50.920;11.612;2023-03-19T07:54:14;9.10;99.90
22795;DHT22;11564;50.920;11.612;2023-03-19T07:56:40;8.60;99.90
22795;DHT22;11564;50.920;11.612;2023-03-19T07:59:06;7.90;99.90
22795;DHT22;11564;50.920;11.612;2023-03-19T08:01:32;7.80;99.90
22795;DHT22;11564;50.920;11.612;2023-03-19T08:03:57;7.90;99.90
22795;DHT22;11564;50.920;11.612;2023-03-19T08:06:23;8.20;99.90
22795;DHT22;11564;50.920;11.612;2023-03-19T08:08:49;8.50;99.90
22795;DHT22;11564;50.920;11.612;2023-03-19T08:11:15;8.80;99.90
22795;DHT22;11564;50.920;11.612;2023-03-19T08:13:41;9.20;99.90
22795;DHT22;11564;50.920;11.612;2023-03-19T08:16:07;9.70;99.90
22795;DHT22;11564;50.920;11.612;2023-03-19T08:18:33;10.00;99.90
22795;DHT22;11564;50.920;11.612;2023-03-19T08:21:02;10.30;99.90
22795;DHT22;11564;50.920;11.612;2023-03-19T08:23:28;10.60;99.90
22795;DHT22;11564;50.920;11.612;2023-03-19T08:25:54;10.90;99.90
22795;DHT22;11564;50.920;11.612;2023-03-19T08:28:22;11.20;99.90
22795;DHT22;11564;50.920;11.612;2023-03-19T08:30:48;11.50;99.90
22795;DHT22;11564;50.920;11.612;2023-03-19T08:33:14;11.70;99.90
22795;DHT22;11564;50.920;11.612;2023-03-19T08:35:40;11.90;99.90
22795;DHT22;11564;50.920;11.612;2023-03-19T08:38:05;12.00;99.90
22795;DHT22;11564;50.920;11.612;2023-03-19T08:40:32;12.10;99.90
22795;DHT22;11564;50.920;11.612;2023-03-19T08:42:57;12.40;99.90
22795;DHT22;11564;50.920;11.612;2023-03-19T08:45:23;11.60;99.90
22795;DHT22;11564;50.920;11.612;2023-03-19T08:47:49;11.10;99.90
22795;DHT22;11564;50.920;11.612;2023-03-19T08:50:15;10.60;99.90
22795;DHT22;11564;50.920;11.612;2023-03-19T08:52:41;10.90;99.90
22795;DHT22;11564;50.920;11.612;2023-03-19T08:55:08;11.00;99.90
22795;DHT22;11564;50.920;11.612;2023-03-19T08:57:34;11.20;99.90
22795;DHT22;11564;50.920;11.612;2023-03-19T09:00:01;11.30;99.90
22795;DHT22;11564;50.920;11.612;2023-03-19T09:02:28;11.50;99.90
22795;DHT22;11564;50.920;11.612;2023-03-19T09:04:54;11.90;99.90
22795;DHT22;11564;50.920;11.612;2023-03-19T09:07:20;12.10;99.90
22795;DHT22;11564;50.920;11.612;2023-03-19T09:09:45;12.20;99.90
22795;DHT22;11564;50.920;11.612;2023-03-19T09:12:13;12.50;99.90
22795;DHT22;11564;50.920;11.612;2023-03-19T09:14:39;12.80;99.90
22795;DHT22;11564;50.920;11.612;2023-03-19T09:17:05;13.00;99.90
22795;DHT22;11564;50.920;11.612;2023-03-19T09:19:31;13.10;99.90
22795;DHT22;11564;50.920;11.612;2023-03-19T09:21:57;13.30;99.90
22795;DHT22;11564;50.920;11.612;2023-03-19T09:24:23;13.30;99.90
22795;DHT22;11564;50.920;11.612;2023-03-19T09:26:49;13.60;99.90
22795;DHT22;11564;50.920;11.612;2023-03-19T09:29:14;13.70;99.90
22795;DHT22;11564;50.920;11.612;2023-03-19T09:31:41;13.80;99.90
22795;DHT22;11564;50.920;11.612;2023-03-19T09:34:06;13.90;99.90
22795;DHT22;11564;50.920;11.612;2023-03-19T09:36:34;14.10;99.90
22795;DHT22;11564;50.920;11.612;2023-03-19T09:39:00;14.10;99.90
22795;DHT22;11564;50.920;11.612;2023-03-19T09:41:39;14.10;99.90
22795;DHT22;11564;50.920;11.612;2023-03-19T09:44:30;14.20;99.90
22795;DHT22;11564;50.920;11.612;2023-03-19T09:49:49;14.20;99.90
22795;DHT22;11564;50.920;11.612;2023-03-19T09:52:43;13.90;99.90
22795;DHT22;11564;50.920;11.612;2023-03-19T09:57:44;13.70;99.90
22795;DHT22;11564;50.920;11.612;2023-03-19T10:00:28;13.60;99.90
22795;DHT22;11564;50.920;11.612;2023-03-19T10:03:45;13.50;99.90
22795;DHT22;11564;50.920;11.612;2023-03-19T10:08:57;13.30;99.90
22795;DHT22;11564;50.920;11.612;2023-03-19T10:11:37;13.20;99.90
22795;DHT22;11564;50.920;11.612;2023-03-19T10:17:14;13.30;99.90
22795;DHT22;11564;50.920;11.612;2023-03-19T10:20:02;13.30;99.90
22795;DHT22;11564;50.920;11.612;2023-03-19T10:22:35;13.30;99.90
22795;DHT22;11564;50.920;11.612;2023-03-19T10:25:03;13.30;99.90
22795;DHT22;11564;50.920;11.612;2023-03-19T10:27:29;13.20;99.90
22795;DHT22;11564;50.920;11.612;2023-03-19T10:29:55;13.20;99.90
22795;DHT22;11564;50.920;11.612;2023-03-19T10:32:43;13.30;99.90
22795;DHT22;11564;50.920;11.612;2023-03-19T10:35:30;13.10;99.90
22795;DHT22;11564;50.920;11.612;2023-03-19T10:38:22;13.10;99.90
22795;DHT22;11564;50.920;11.612;2023-03-19T10:41:19;12.90;99.90
22795;DHT22;11564;50.920;11.612;2023-03-19T10:43:53;12.80;99.90
22795;DHT22;11564;50.920;11.612;2023-03-19T10:46:20;12.80;99.90
22795;DHT22;11564;50.920;11.612;2023-03-19T10:48:46;12.70;99.90
22795;DHT22;11564;50.920;11.612;2023-03-19T10:51:14;12.70;99.90
22795;DHT22;11564;50.920;11.612;2023-03-19T10:53:40;12.60;99.90
22795;DHT22;11564;50.920;11.612;2023-03-19T10:58:35;12.60;99.90
22795;DHT22;11564;50.920;11.612;2023-03-19T11:01:11;12.50;99.90
22795;DHT22;11564;50.920;11.612;2023-03-19T11:03:39;12.20;99.90
22795;DHT22;11564;50.920;11.612;2023-03-19T11:06:23;12.30;99.90
22795;DHT22;11564;50.920;11.612;2023-03-19T11:08:56;12.10;99.90
22795;DHT22;11564;50.920;11.612;2023-03-19T11:11:32;12.00;99.90
22795;DHT22;11564;50.920;11.612;2023-03-19T11:14:04;12.00;99.90
22795;DHT22;11564;50.920;11.612;2023-03-19T11:16:30;12.00;99.90
22795;DHT22;11564;50.920;11.612;2023-03-19T11:18:57;12.10;99.90
22795;DHT22;11564;50.920;11.612;2023-03-19T11:21:28;12.00;99.90
22795;DHT22;11564;50.920;11.612;2023-03-19T11:24:02;12.00;99.90
22795;DHT22;11564;50.920;11.612;2023-03-19T11:26:29;12.10;99.90
22795;DHT22;11564;50.920;11.612;2023-03-19T11:29:03;12.10;99.90
22795;DHT22;11564;50.920;11.612;2023-03-19T11:31:36;12.00;99.90
22795;DHT22;11564;50.920;11.612;2023-03-19T11:34:17;12.10;99.90
22795;DHT22;11564;50.920;11.612;2023-03-19T11:42:49;12.00;99.90
22795;DHT22;11564;50.920;11.612;2023-03-19T11:45:34;12.00;99.90
22795;DHT22;11564;50.920;11.612;2023-03-19T11:48:17;11.90;99.90
22795;DHT22;11564;50.920;11.612;2023-03-19T11:51:03;11.80;99.90
22795;DHT22;11564;50.920;11.612;2023-03-19T11:56:46;11.10;99.90
22795;DHT22;11564;50.920;11.612;2023-03-19T12:12:49;10.60;99.90
22795;DHT22;11564;50.920;11.612;2023-03-19T12:15:33;10.60;99.90
22795;DHT22;11564;50.920;11.612;2023-03-19T12:21:52;10.70;99.90
22795;DHT22;11564;50.920;11.612;2023-03-19T12:30:11;11.30;99.90
22795;DHT22;11564;50.920;11.612;2023-03-19T12:35:40;11.80;99.90
22795;DHT22;11564;50.920;11.612;2023-03-19T12:38:31;12.10;99.90
22795;DHT22;11564;50.920;11.612;2023-03-19T12:40:59;12.40;99.90
22795;DHT22;11564;50.920;11.612;2023-03-19T12:43:37;12.60;99.90
22795;DHT22;11564;50.920;11.612;2023-03-19T12:46:27;12.80;99.90
22795;DHT22;11564;50.920;11.612;2023-03-19T12:51:37;13.10;99.90
22795;DHT22;11564;50.920;11.612;2023-03-19T12:54:28;13.20;99.90
22795;DHT22;11564;50.920;11.612;2023-03-19T12:57:01;13.40;99.90
22795;DHT22;11564;50.920;11.612;2023-03-19T13:02:16;13.70;99.90
22795;DHT22;11564;50.920;11.612;2023-03-19T13:07:55;14.00;99.90
22795;DHT22;11564;50.920;11.612;2023-03-19T13:10:22;14.30;99.90
22795;DHT22;11564;50.920;11.612;2023-03-19T13:12:50;14.20;99.90
22795;DHT22;11564;50.920;11.612;2023-03-19T13:18:47;14.80;99.90
22795;DHT22;11564;50.920;11.612;2023-03-19T13:21:21;15.10;99.90
22795;DHT22;11564;50.920;11.612;2023-03-19T13:24:14;15.30;99.90
22795;DHT22;11564;50.920;11.612;2023-03-19T13:26:36;15.60;99.90
22795;DHT22;11564;50.920;11.612;2023-03-19T13:29:14;16.10;99.90
22795;DHT22;11564;50.920;11.612;2023-03-19T13:31:41;16.10;99.90
22795;DHT22;11564;50.920;11.612;2023-03-19T13:34:35;16.30;99.90
22795;DHT22;11564;50.920;11.612;2023-03-19T13:37:18;16.20;99.90
22795;DHT22;11564;50.920;11.612;2023-03-19T13:39:46;16.40;99.90
22795;DHT22;11564;50.920;11.612;2023-03-19T13:42:38;15.70;99.90
22795;DHT22;11564;50.920;11.612;2023-03-19T13:45:34;15.50;99.90
22795;DHT22;11564;50.920;11.612;2023-03-19T13:48:23;15.80;99.90
22795;DHT22;11564;50.920;11.612;2023-03-19T13:55:18;15.60;99.90
22795;DHT22;11564;50.920;11.612;2023-03-19T13:59:26;15.20;99.90
22795;DHT22;11564;50.920;11.612;2023-03-19T14:01:53;15.10;99.90
22795;DHT22;11564;50.920;11.612;2023-03-19T14:06:50;15.20;99.90
22795;DHT22;11564;50.920;11.612;2023-03-19T14:10:21;15.50;99.90
22795;DHT22;11564;50.920;11.612;2023-03-19T14:12:32;15.50;99.90
22795;DHT22;11564;50.920;11.612;2023-03-19T14:17:36;16.20;99.90
22795;DHT22;11564;50.920;11.612;2023-03-19T14:20:32;16.60;99.90
22795;DHT22;11564;50.920;11.612;2023-03-19T14:30:59;19.50;99.90
22795;DHT22;11564;50.920;11.612;2023-03-19T14:33:32;20.40;99.90
22795;DHT22;11564;50.920;11.612;2023-03-19T14:36:03;21.80;99.90
22795;DHT22;11564;50.920;11.612;2023-03-19T14:38:50;22.60;99.90
22795;DHT22;11564;50.920;11.612;2023-03-19T14:41:20;22.60;99.90
22795;DHT22;11564;50.920;11.612;2023-03-19T14:52:22;22.00;99.20
22795;DHT22;11564;50.920;11.612;2023-03-19T14:54:57;22.30;99.20
22795;DHT22;11564;50.920;11.612;2023-03-19T14:57:31;22.00;98.70
22795;DHT22;11564;50.920;11.612;2023-03-19T15:00:01;21.40;98.20
22795;DHT22;11564;50.920;11.612;2023-03-19T15:02:37;22.60;98.70
22795;DHT22;11564;50.920;11.612;2023-03-19T15:05:29;24.60;96.70
22795;DHT22;11564;50.920;11.612;2023-03-19T15:08:01;25.90;95.00
22795;DHT22;11564;50.920;11.612;2023-03-19T15:10:31;25.70;93.70
22795;DHT22;11564;50.920;11.612;2023-03-19T15:18:45;28.20;84.60
22795;DHT22;11564;50.920;11.612;2023-03-19T15:21:11;28.60;85.00
22795;DHT22;11564;50.920;11.612;2023-03-19T15:23:38;26.90;85.90
22795;DHT22;11564;50.920;11.612;2023-03-19T15:26:05;25.70;88.10
22795;DHT22;11564;50.920;11.612;2023-03-19T15:28:50;26.50;85.20
22795;DHT22;11564;50.920;11.612;2023-03-19T15:31:16;28.80;85.40
22795;DHT22;11564;50.920;11.612;2023-03-19T15:33:42;30.10;81.00
22795;DHT22;11564;50.920;11.612;2023-03-19T15:36:20;31.60;79.20
22795;DHT22;11564;50.920;11.612;2023-03-19T15:38:53;31.40;76.30
22795;DHT22;11564;50.920;11.612;2023-03-19T15:41:23;32.00;75.70
22795;DHT22;11564;50.920;11.612;2023-03-19T15:43:49;31.30;74.30
22795;DHT22;11564;50.920;11.612;2023-03-19T15:46:19;30.70;74.30
22795;DHT22;11564;50.920;11.612;2023-03-19T15:48:52;30.20;74.90
22795;DHT22;11564;50.920;11.612;2023-03-19T15:51:21;30.10;73.30
22795;DHT22;11564;50.920;11.612;2023-03-19T15:53:49;28.70;74.80
22795;DHT22;11564;50.920;11.612;2023-03-19T15:56:16;27.10;77.20
22795;DHT22;11564;50.920;11.612;2023-03-19T15:58:48;27.20;77.10
22795;DHT22;11564;50.920;11.612;2023-03-19T16:01:16;25.00;80.10
22795;DHT22;11564;50.920;11.612;2023-03-19T16:06:47;27.30;78.60
22795;DHT22;11564;50.920;11.612;2023-03-19T16:09:32;27.50;77.40
22795;DHT22;11564;50.920;11.612;2023-03-19T16:11:59;28.10;77.10
22795;DHT22;11564;50.920;11.612;2023-03-19T16:14:30;27.30;78.30
22795;DHT22;11564;50.920;11.612;2023-03-19T16:17:10;26.10;78.20
22795;DHT22;11564;50.920;11.612;2023-03-19T16:19:46;26.20;78.80
22795;DHT22;11564;50.920;11.612;2023-03-19T16:22:19;26.00;79.10
22795;DHT22;11564;50.920;11.612;2023-03-19T16:24:46;24.00;81.50
22795;DHT22;11564;50.920;11.612;2023-03-19T16:27:16;23.20;83.70
22795;DHT22;11564;50.920;11.612;2023-03-19T16:29:47;21.70;86.80
22795;DHT22;11564;50.920;11.612;2023-03-19T16:32:24;20.00;90.20
22795;DHT22;11564;50.920;11.612;2023-03-19T16:35:14;19.10;91.90
22795;DHT22;11564;50.920;11.612;2023-03-19T16:37:45;18.40;93.90
22795;DHT22;11564;50.920;11.612;2023-03-19T16:42:49;16.70;98.00
22795;DHT22;11564;50.920;11.612;2023-03-19T16:45:28;15.90;99.90
22795;DHT22;11564;50.920;11.612;2023-03-19T16:47:56;15.50;99.90
22795;DHT22;11564;50.920;11.612;2023-03-19T16:50:28;14.90;99.90
22795;DHT22;11564;50.920;11.612;2023-03-19T16:52:55;14.50;99.90
22795;DHT22;11564;50.920;11.612;2023-03-19T16:55:22;14.20;99.90
22795;DHT22;11564;50.920;11.612;2023-03-19T17:00:29;13.50;99.90
22795;DHT22;11564;50.920;11.612;2023-03-19T17:02:55;13.20;99.90
22795;DHT22;11564;50.920;11.612;2023-03-19T17:05:22;13.00;99.90
22795;DHT22;11564;50.920;11.612;2023-03-19T17:07:48;12.90;99.90
22795;DHT22;11564;50.920;11.612;2023-03-19T17:10:20;12.80;99.90
22795;DHT22;11564;50.920;11.612;2023-03-19T17:12:48;12.80;99.90
22795;DHT22;11564;50.920;11.612;2023-03-19T17:15:25;12.60;99.90
22795;DHT22;11564;50.920;11.612;2023-03-19T17:17:51;12.30;99.90
22795;DHT22;11564;50.920;11.612;2023-03-19T17:20:28;12.30;99.90